createdAt,value
2018-05-03T00:01:57.469Z,91.00
2018-05-03T00:04:25.121Z,91.10
2018-05-03T00:06:52.830Z,91.30
2018-05-03T00:09:20.513Z,91.60
2018-05-03T00:11:48.213Z,92.00
2018-05-03T00:14:15.921Z,92.50
2018-05-03T00:16:43.598Z,92.60
2018-05-03T00:19:11.341Z,92.80
2018-05-03T00:21:39.020Z,93.00
2018-05-03T00:24:06.689Z,93.20
2018-05-03T00:26:34.409Z,93.30
2018-05-03T00:29:02.845Z,93.40
2018-05-03T00:31:30.543Z,93.40
2018-05-03T00:33:59.018Z,93.70
2018-05-03T00:36:27.485Z,94.20
2018-05-03T00:38:55.174Z,93.70
2018-05-03T00:41:23.642Z,94.10
2018-05-03T00:43:52.082Z,94.20
2018-05-03T00:46:19.759Z,94.20
2018-05-03T00:48:47.493Z,94.20
2018-05-03T00:51:15.157Z,94.20
2018-05-03T00:53:42.833Z,94.10
2018-05-03T00:56:10.533Z,94.20
2018-05-03T00:58:38.970Z,94.20
2018-05-03T01:01:06.685Z,94.20
2018-05-03T01:03:35.161Z,94.20
2018-05-03T01:06:03.630Z,94.20
2018-05-03T01:08:32.093Z,94.30
2018-05-03T01:10:59.793Z,94.30
2018-05-03T01:13:27.489Z,94.30
2018-05-03T01:15:55.157Z,94.30
2018-05-03T01:18:22.862Z,94.30
2018-05-03T01:20:51.321Z,94.00
2018-05-03T01:23:18.994Z,94.00
2018-05-03T01:25:47.465Z,93.90
2018-05-03T01:28:15.165Z,93.90
2018-05-03T01:30:42.845Z,93.90
2018-05-03T01:33:10.572Z,93.80
2018-05-03T01:35:50.850Z,93.50
2018-05-03T01:38:18.613Z,93.40
2018-05-03T01:40:46.293Z,93.40
2018-05-03T01:43:13.970Z,93.40
2018-05-03T01:45:41.681Z,93.30
2018-05-03T01:48:10.121Z,93.40
2018-05-03T01:50:37.817Z,93.30
2018-05-03T01:53:06.293Z,93.60
2018-05-03T01:55:34.737Z,93.60
2018-05-03T01:58:02.433Z,93.60
2018-05-03T02:00:30.904Z,93.90
2018-05-03T02:02:59.500Z,93.60
2018-05-03T02:05:27.966Z,93.90
2018-05-03T02:07:56.449Z,94.10
2018-05-03T02:10:24.941Z,94.30
2018-05-03T02:12:53.378Z,94.30
2018-05-03T02:15:21.109Z,94.30
2018-05-03T02:17:48.788Z,94.60
2018-05-03T02:20:16.461Z,94.70
2018-05-03T02:22:44.181Z,94.90
2018-05-03T02:25:11.849Z,95.00
2018-05-03T02:27:39.549Z,95.10
2018-05-03T02:30:07.250Z,95.10
2018-05-03T02:32:35.693Z,95.40
2018-05-03T02:35:03.453Z,95.30
2018-05-03T02:37:31.179Z,95.50
2018-05-03T02:39:59.078Z,95.60
2018-05-03T02:42:26.837Z,95.60
2018-05-03T02:44:54.702Z,95.70
2018-05-03T02:47:22.417Z,95.80
2018-05-03T02:49:50.091Z,95.80
2018-05-03T02:52:17.822Z,95.90
2018-05-03T02:54:46.265Z,96.10
2018-05-03T02:57:25.908Z,96.10
2018-05-03T03:00:05.550Z,96.30
2018-05-03T03:02:50.930Z,96.30
2018-05-03T03:05:36.249Z,96.40
2018-05-03T03:11:54.246Z,96.30
2018-05-03T03:14:39.656Z,96.80
2018-05-03T03:17:24.874Z,96.50
2018-05-03T03:20:16.117Z,96.20
2018-05-03T03:23:01.499Z,96.50
2018-05-03T03:26:11.554Z,96.50
2018-05-03T03:29:12.085Z,96.10
2018-05-03T03:31:57.493Z,96.60
2018-05-03T03:34:26.086Z,96.20
2018-05-03T03:37:16.213Z,96.00
2018-05-03T03:40:10.313Z,96.00
2018-05-03T03:45:47.633Z,95.90
2018-05-03T03:48:15.335Z,96.10
2018-05-03T03:50:43.009Z,95.90
2018-05-03T03:53:10.740Z,96.20
2018-05-03T03:55:39.223Z,96.20
2018-05-03T03:58:07.663Z,96.20
2018-05-03T04:00:35.357Z,96.20
2018-05-03T04:03:03.856Z,96.20
2018-05-03T04:05:32.329Z,96.20
2018-05-03T04:08:00.773Z,96.10
2018-05-03T04:10:28.476Z,96.10
2018-05-03T04:12:56.184Z,96.10
2018-05-03T04:15:23.858Z,96.10
2018-05-03T04:18:03.405Z,96.00
2018-05-03T04:20:46.919Z,96.00
2018-05-03T04:23:35.177Z,95.90
2018-05-03T04:26:04.737Z,95.80
2018-05-03T04:28:32.409Z,95.70
2018-05-03T04:31:00.109Z,95.60
2018-05-03T04:33:27.787Z,95.50
2018-05-03T04:35:55.479Z,95.50
2018-05-03T04:38:23.187Z,95.60
2018-05-03T04:40:50.865Z,95.50
2018-05-03T04:43:18.561Z,95.50
2018-05-03T04:45:46.367Z,95.80
2018-05-03T04:48:14.065Z,95.50
2018-05-03T04:50:42.513Z,95.40
2018-05-03T04:53:10.248Z,95.40
2018-05-03T04:55:37.926Z,95.70
2018-05-03T04:58:05.613Z,95.90
2018-05-03T05:00:33.318Z,95.70
2018-05-03T05:03:00.990Z,95.90
2018-05-03T05:05:28.707Z,95.50
2018-05-03T05:07:57.190Z,95.80
2018-05-03T05:10:25.756Z,95.70
2018-05-03T05:12:53.449Z,95.70
2018-05-03T05:15:22.081Z,96.00
2018-05-03T05:17:49.893Z,95.90
2018-05-03T05:20:18.529Z,95.80
2018-05-03T05:22:46.395Z,95.80
2018-05-03T05:25:14.162Z,95.90
2018-05-03T05:27:42.641Z,95.90
2018-05-03T05:30:10.508Z,95.90
2018-05-03T05:32:38.374Z,95.90
2018-05-03T05:35:06.817Z,96.00
2018-05-03T05:37:34.517Z,95.80
2018-05-03T05:40:02.219Z,96.10
2018-05-03T05:42:30.674Z,96.50
2018-05-03T05:44:58.389Z,96.50
2018-05-03T05:47:26.072Z,96.50
2018-05-03T05:49:53.775Z,96.70
2018-05-03T05:52:22.237Z,96.90
2018-05-03T05:54:49.948Z,96.90
2018-05-03T05:57:17.641Z,97.60
2018-05-03T05:59:45.356Z,97.00
2018-05-03T06:02:13.837Z,97.30
2018-05-03T06:04:42.281Z,97.30
2018-05-03T06:07:09.981Z,97.20
2018-05-03T06:09:37.689Z,97.20
2018-05-03T06:12:05.365Z,97.60
2018-05-03T06:14:33.074Z,97.60
2018-05-03T06:17:00.793Z,97.60
2018-05-03T06:19:28.635Z,97.50
2018-05-03T06:21:56.500Z,97.70
2018-05-03T06:24:24.186Z,97.40
2018-05-03T06:26:51.858Z,97.10
2018-05-03T06:29:20.337Z,96.90
2018-05-03T06:31:48.774Z,97.00
2018-05-03T06:34:16.468Z,96.80
2018-05-03T06:36:44.193Z,96.30
2018-05-03T06:39:11.869Z,97.00
2018-05-03T06:41:39.567Z,96.80
2018-05-03T06:44:08.041Z,96.90
2018-05-03T06:46:36.478Z,96.80
2018-05-03T06:49:04.177Z,96.80
2018-05-03T06:51:31.907Z,96.60
2018-05-03T06:53:59.601Z,96.70
2018-05-03T06:56:28.073Z,96.50
2018-05-03T06:58:55.775Z,96.50
2018-05-03T07:01:23.475Z,97.10
2018-05-03T07:03:51.143Z,96.90
2018-05-03T07:06:18.845Z,96.90
2018-05-03T07:08:47.370Z,96.80
2018-05-03T07:11:15.091Z,96.80
2018-05-03T07:13:42.830Z,96.90
2018-05-03T07:16:10.540Z,96.20
2018-05-03T07:18:38.336Z,96.80
2018-05-03T07:21:06.049Z,96.90
2018-05-03T07:23:33.725Z,96.60
2018-05-03T07:26:01.432Z,96.80
2018-05-03T07:28:29.150Z,96.50
2018-05-03T07:30:56.851Z,96.70
2018-05-03T07:33:24.570Z,96.80
2018-05-03T07:35:52.273Z,97.00
2018-05-03T07:38:19.965Z,96.90
2018-05-03T07:40:48.539Z,96.80
2018-05-03T07:43:17.021Z,96.60
2018-05-03T07:45:44.725Z,96.50
2018-05-03T07:48:12.397Z,96.30
2018-05-03T07:50:40.126Z,97.00
2018-05-03T07:53:08.659Z,96.60
2018-05-03T07:55:36.333Z,96.50
2018-05-03T07:58:04.036Z,97.10
2018-05-03T08:00:31.709Z,96.30
2018-05-03T08:02:59.401Z,96.60
2018-05-03T08:05:27.101Z,96.80
2018-05-03T08:07:55.542Z,97.40
2018-05-03T08:10:23.241Z,97.30
2018-05-03T08:12:51.705Z,96.70
2018-05-03T08:15:19.416Z,96.60
2018-05-03T08:17:47.104Z,96.70
2018-05-03T08:20:15.572Z,95.80
2018-05-03T08:22:43.261Z,95.90
2018-05-03T08:25:10.945Z,96.10
2018-05-03T08:27:38.673Z,96.10
2018-05-03T08:30:06.345Z,96.10
2018-05-03T08:32:34.025Z,96.60
2018-05-03T08:35:01.724Z,96.20
2018-05-03T08:37:29.401Z,96.20
2018-05-03T08:39:57.091Z,95.50
2018-05-03T08:42:24.798Z,95.60
2018-05-03T08:44:52.495Z,95.80
2018-05-03T08:47:20.203Z,95.10
2018-05-03T08:49:48.678Z,95.40
2018-05-03T08:52:17.121Z,95.10
2018-05-03T08:54:44.817Z,95.00
2018-05-03T08:57:13.301Z,94.70
2018-05-03T08:59:41.761Z,94.60
2018-05-03T09:02:09.437Z,94.50
2018-05-03T09:04:37.987Z,94.80
2018-05-03T09:07:05.686Z,94.70
2018-05-03T09:09:34.121Z,94.60
2018-05-03T09:12:01.823Z,94.50
2018-05-03T09:14:30.266Z,94.50
2018-05-03T09:16:57.937Z,94.40
2018-05-03T09:19:25.657Z,93.60
2018-05-03T09:21:53.325Z,93.10
2018-05-03T09:24:20.992Z,93.30
2018-05-03T09:26:48.771Z,92.60
2018-05-03T09:29:16.437Z,92.60
2018-05-03T09:31:44.106Z,92.60
2018-05-03T09:34:11.805Z,92.40
2018-05-03T09:36:40.238Z,91.40
2018-05-03T09:39:07.944Z,91.30
2018-05-03T09:41:35.697Z,91.10
2018-05-03T09:44:03.389Z,91.50
2018-05-03T09:46:31.070Z,90.30
2018-05-03T09:48:58.786Z,90.20
2018-05-03T09:51:27.257Z,89.10
2018-05-03T09:53:54.928Z,89.00
2018-05-03T09:56:23.407Z,85.20
2018-05-03T09:58:51.865Z,83.50
2018-05-03T10:01:19.581Z,83.40
2018-05-03T10:03:47.287Z,84.30
2018-05-03T10:06:14.965Z,82.20
2018-05-03T10:08:42.667Z,84.00
2018-05-03T10:11:10.433Z,81.80
2018-05-03T10:13:38.129Z,80.50
2018-05-03T10:16:05.797Z,80.30
2018-05-03T10:18:33.525Z,78.80
2018-05-03T10:21:01.212Z,75.60
2018-05-03T10:23:28.889Z,75.40
2018-05-03T10:25:56.597Z,74.90
2018-05-03T10:28:24.281Z,74.50
2018-05-03T10:30:51.972Z,78.40
2018-05-03T10:33:19.762Z,79.00
2018-05-03T10:35:48.243Z,83.40
2018-05-03T10:38:15.965Z,83.40
2018-05-03T10:40:43.689Z,84.20
2018-05-03T10:43:11.389Z,85.60
2018-05-03T10:45:39.081Z,87.80
2018-05-03T10:48:07.590Z,84.00
2018-05-03T10:50:35.265Z,83.90
2018-05-03T10:53:02.938Z,83.00
2018-05-03T10:55:30.642Z,82.40
2018-05-03T10:57:59.090Z,80.20
2018-05-03T11:00:26.793Z,80.10
2018-05-03T11:02:55.265Z,83.80
2018-05-03T11:05:23.711Z,81.50
2018-05-03T11:07:52.229Z,81.60
2018-05-03T11:10:20.704Z,80.50
2018-05-03T11:12:49.181Z,82.40
2018-05-03T11:15:16.853Z,82.40
2018-05-03T11:17:45.353Z,84.10
2018-05-03T11:20:13.050Z,84.00
2018-05-03T11:22:40.723Z,84.40
2018-05-03T11:25:08.445Z,85.00
2018-05-03T11:27:36.125Z,85.50
2018-05-03T11:30:03.836Z,86.10
2018-05-03T11:32:32.317Z,86.90
2018-05-03T11:35:00.759Z,86.80
2018-05-03T11:37:28.469Z,86.80
2018-05-03T11:39:56.941Z,85.60
2018-05-03T11:42:25.386Z,86.80
2018-05-03T11:44:53.086Z,86.80
2018-05-03T11:47:21.557Z,88.10
2018-05-03T11:49:50.020Z,86.50
2018-05-03T11:52:17.713Z,86.40
2018-05-03T11:54:46.213Z,87.80
2018-05-03T11:57:13.885Z,87.80
2018-05-03T11:59:41.553Z,88.40
2018-05-03T12:02:09.257Z,89.60
2018-05-03T12:04:36.929Z,89.90
2018-05-03T12:07:05.389Z,88.70
2018-05-03T12:09:33.173Z,88.60
2018-05-03T12:12:01.614Z,90.10
2018-05-03T12:14:29.340Z,90.50
2018-05-03T12:16:57.045Z,89.70
2018-05-03T12:19:24.764Z,88.30
2018-05-03T12:21:52.434Z,87.20
2018-05-03T12:24:20.207Z,86.80
2018-05-03T12:26:47.874Z,87.80
2018-05-03T12:29:15.570Z,88.30
2018-05-03T12:31:43.313Z,89.20
2018-05-03T12:34:10.985Z,90.00
2018-05-03T12:36:38.665Z,90.20
2018-05-03T12:39:07.146Z,89.80
2018-05-03T12:41:35.584Z,89.20
2018-05-03T12:44:03.288Z,89.20
2018-05-03T12:46:31.768Z,89.70
2018-05-03T12:49:00.205Z,90.30
2018-05-03T12:51:27.901Z,90.20
2018-05-03T12:53:56.418Z,90.30
2018-05-03T12:56:24.097Z,90.20
2018-05-03T12:58:51.794Z,90.40
2018-05-03T13:01:19.497Z,90.90
2018-05-03T13:03:47.190Z,90.90
2018-05-03T13:06:14.878Z,90.70
2018-05-03T13:08:42.602Z,90.50
2018-05-03T13:11:10.297Z,90.50
2018-05-03T13:13:37.985Z,90.90
2018-05-03T13:16:06.477Z,91.00
2018-05-03T13:18:34.963Z,91.30
2018-05-03T13:21:02.634Z,91.20
2018-05-03T13:23:30.576Z,91.60
2018-05-03T13:25:59.048Z,91.80
2018-05-03T13:28:27.498Z,91.70
2018-05-03T13:30:55.254Z,91.80
2018-05-03T13:33:22.934Z,91.70
2018-05-03T13:35:50.641Z,91.80
2018-05-03T13:38:18.345Z,92.20
2018-05-03T13:40:46.078Z,91.80
2018-05-03T13:43:13.899Z,91.90
2018-05-03T13:45:41.577Z,91.90
2018-05-03T13:48:10.026Z,93.60
2018-05-03T13:50:37.744Z,93.60
2018-05-03T13:53:05.448Z,93.60
2018-05-03T13:55:33.249Z,93.70
2018-05-03T13:58:00.893Z,93.90
2018-05-03T14:00:29.374Z,94.40
2018-05-03T14:02:57.840Z,94.10
2018-05-03T14:05:25.522Z,94.10
2018-05-03T14:07:53.993Z,94.10
2018-05-03T14:10:22.457Z,94.40
2018-05-03T14:12:50.141Z,94.30
2018-05-03T14:15:18.614Z,94.60
2018-05-03T14:17:47.093Z,94.60
2018-05-03T14:20:15.546Z,94.90
2018-05-03T14:22:43.313Z,94.80
2018-05-03T14:25:11.003Z,94.70
2018-05-03T14:27:39.447Z,94.60
2018-05-03T14:30:07.165Z,94.60
2018-05-03T14:32:34.841Z,94.70
2018-05-03T14:35:02.538Z,94.80
2018-05-03T14:37:30.247Z,95.30
2018-05-03T14:39:57.936Z,95.70
2018-05-03T14:42:25.645Z,95.90
2018-05-03T14:44:54.129Z,96.10
2018-05-03T14:47:22.643Z,96.10
2018-05-03T14:49:51.090Z,96.60
2018-05-03T14:52:19.565Z,96.60
2018-05-03T14:54:48.029Z,96.70
2018-05-03T14:57:15.875Z,96.70
2018-05-03T14:59:43.742Z,96.40
2018-05-03T15:02:11.445Z,96.50
2018-05-03T15:04:39.984Z,97.30
2018-05-03T15:07:07.685Z,97.30
2018-05-03T15:09:36.126Z,97.70
2018-05-03T15:12:03.991Z,97.70
2018-05-03T15:14:31.855Z,98.00
2018-05-03T15:16:59.721Z,98.00
2018-05-03T15:19:27.429Z,98.00
2018-05-03T15:21:56.070Z,97.90
2018-05-03T15:24:23.872Z,97.90
2018-05-03T15:26:52.414Z,97.80
2018-05-03T15:29:20.278Z,97.80
2018-05-03T15:31:48.040Z,97.90
2018-05-03T15:34:15.725Z,97.70
2018-05-03T15:36:43.442Z,97.80
2018-05-03T15:39:11.134Z,97.80
2018-05-03T15:41:38.949Z,98.20
2018-05-03T15:44:06.755Z,97.70
2018-05-03T15:46:34.458Z,97.80
2018-05-03T15:49:02.897Z,94.00
2018-05-03T15:51:30.606Z,93.90
2018-05-03T15:53:59.129Z,94.40
2018-05-03T15:56:26.802Z,94.40
2018-05-03T15:58:54.665Z,93.10
2018-05-03T16:01:22.340Z,92.10
2018-05-03T16:03:50.049Z,91.60
2018-05-03T16:06:17.753Z,90.90
2018-05-03T16:08:45.437Z,91.40
2018-05-03T16:11:13.137Z,90.50
2018-05-03T16:13:40.849Z,89.30
2018-05-03T16:16:08.549Z,86.80
2018-05-03T16:18:36.997Z,84.80
2018-05-03T16:21:04.744Z,84.80
2018-05-03T16:23:32.435Z,84.60
2018-05-03T16:26:00.894Z,86.10
2018-05-03T16:28:28.602Z,87.00
2018-05-03T16:30:56.277Z,87.00
2018-05-03T16:33:24.169Z,87.20
2018-05-03T16:35:52.039Z,88.00
2018-05-03T16:38:19.837Z,88.10
2018-05-03T16:40:48.356Z,89.40
2018-05-03T16:43:16.817Z,89.10
2018-05-03T16:45:44.525Z,89.10
2018-05-03T16:48:12.217Z,88.10
2018-05-03T16:50:40.717Z,88.90
2018-05-03T16:53:09.162Z,88.40
2018-05-03T16:55:36.841Z,88.40
2018-05-03T16:58:05.370Z,87.30
2018-05-03T17:00:33.073Z,87.30
2018-05-03T17:03:00.782Z,87.10
2018-05-03T17:05:28.513Z,89.60
2018-05-03T17:07:56.953Z,90.20
2018-05-03T17:10:24.661Z,90.20
2018-05-03T17:12:53.137Z,91.40
2018-05-03T17:15:22.246Z,91.60
2018-05-03T17:17:52.207Z,91.50
2018-05-03T17:20:19.921Z,91.70
2018-05-03T17:22:47.624Z,91.80
2018-05-03T17:25:15.388Z,92.20
2018-05-03T17:27:43.140Z,92.60
2018-05-03T17:30:10.822Z,92.70
2018-05-03T17:32:38.497Z,93.20
2018-05-03T17:35:06.358Z,93.10
2018-05-03T17:37:34.214Z,93.30
2018-05-03T17:40:02.071Z,93.40
2018-05-03T17:42:30.589Z,94.40
2018-05-03T17:44:59.050Z,94.90
2018-05-03T17:47:26.769Z,94.90
2018-05-03T17:49:54.469Z,95.30
2018-05-03T17:52:22.181Z,95.80
2018-05-03T17:54:49.865Z,96.00
2018-05-03T17:57:17.563Z,96.20
2018-05-03T17:59:46.122Z,97.20
2018-05-03T18:02:13.884Z,96.80
2018-05-03T18:04:41.612Z,97.00
2018-05-03T18:07:09.412Z,97.20
2018-05-03T18:09:37.174Z,97.40
2018-05-03T18:12:05.042Z,97.50
2018-05-03T18:14:32.758Z,97.70
2018-05-03T18:17:00.568Z,97.70
2018-05-03T18:19:28.432Z,97.80
2018-05-03T18:21:56.298Z,98.00
2018-05-03T18:24:23.995Z,97.90
2018-05-03T18:26:52.643Z,98.00
2018-05-03T18:29:20.325Z,97.90
2018-05-03T18:31:48.038Z,97.90
2018-05-03T18:34:15.868Z,97.80
2018-05-03T18:36:43.510Z,97.80
2018-05-03T18:39:11.214Z,97.80
2018-05-03T18:41:39.027Z,97.80
2018-05-03T18:44:06.747Z,97.90
2018-05-03T18:46:34.485Z,97.90
2018-05-03T18:49:02.189Z,98.00
2018-05-03T18:51:29.893Z,98.10
2018-05-03T18:53:57.581Z,98.20
2018-05-03T18:56:26.056Z,98.20
2018-05-03T18:58:54.495Z,98.70
2018-05-03T19:01:22.331Z,98.30
2018-05-03T19:03:50.807Z,98.50
2018-05-03T19:06:18.539Z,98.50
2018-05-03T19:08:47.017Z,98.70
2018-05-03T19:11:15.511Z,98.80
2018-05-03T19:13:43.221Z,98.80
2018-05-03T19:16:10.897Z,98.70
2018-05-03T19:18:38.629Z,98.30
2018-05-03T19:21:06.305Z,97.80
2018-05-03T19:23:34.065Z,96.80
2018-05-03T19:26:02.135Z,96.20
2018-05-03T19:28:29.805Z,95.70
2018-05-03T19:30:57.477Z,95.10
2018-05-03T19:33:25.189Z,94.90
2018-05-03T19:35:52.913Z,94.70
2018-05-03T19:38:20.745Z,94.60
2018-05-03T19:40:48.449Z,94.70
2018-05-03T19:43:16.889Z,95.00
2018-05-03T19:45:44.593Z,95.00
2018-05-03T19:48:13.065Z,94.50
2018-05-03T19:50:41.533Z,94.20
2018-05-03T19:53:09.213Z,94.20
2018-05-03T19:55:37.681Z,93.70
2018-05-03T19:58:05.409Z,93.40
2018-05-03T20:00:33.129Z,93.50
2018-05-03T20:03:00.862Z,93.20
2018-05-03T20:05:28.653Z,92.90
2018-05-03T20:07:57.101Z,91.80
2018-05-03T20:10:24.807Z,91.80
2018-05-03T20:12:52.490Z,91.90
2018-05-03T20:15:20.442Z,92.30
2018-05-03T20:17:48.129Z,92.90
2018-05-03T20:20:15.798Z,93.40
2018-05-03T20:22:43.499Z,93.60
2018-05-03T20:25:11.965Z,93.90
2018-05-03T20:27:39.662Z,93.90
2018-05-03T20:30:07.330Z,93.70
2018-05-03T20:32:35.062Z,93.60
2018-05-03T20:35:03.503Z,92.40
2018-05-03T20:37:31.208Z,92.30
2018-05-03T20:39:59.843Z,91.70
2018-05-03T20:42:27.606Z,91.70
2018-05-03T20:44:55.302Z,92.30
2018-05-03T20:47:23.769Z,92.90
2018-05-03T20:49:51.464Z,92.90
2018-05-03T20:52:19.141Z,93.10
2018-05-03T20:54:46.842Z,93.00
2018-05-03T20:57:14.535Z,92.80
2018-05-03T20:59:43.075Z,92.30
2018-05-03T21:02:10.779Z,92.20
2018-05-03T21:04:39.214Z,91.50
2018-05-03T21:07:07.028Z,91.50
2018-05-03T21:09:34.770Z,91.20
2018-05-03T21:12:02.614Z,91.10
2018-05-03T21:14:30.319Z,91.00
2018-05-03T21:16:58.894Z,90.80
2018-05-03T21:19:27.349Z,90.80
2018-05-03T21:21:55.028Z,90.80
2018-05-03T21:24:23.521Z,90.50
2018-05-03T21:26:51.953Z,90.30
2018-05-03T21:29:19.621Z,90.30
2018-05-03T21:31:47.326Z,90.10
2018-05-03T21:34:15.858Z,90.20
2018-05-03T21:36:43.582Z,90.20
2018-05-03T21:39:11.285Z,90.30
2018-05-03T21:41:38.984Z,90.40
2018-05-03T21:44:07.561Z,90.40
2018-05-03T21:46:36.026Z,90.10
2018-05-03T21:49:03.709Z,90.10
2018-05-03T21:51:32.182Z,88.90
2018-05-03T21:54:00.653Z,88.70
2018-05-03T21:56:28.325Z,88.70
2018-05-03T21:58:56.780Z,89.90
2018-05-03T22:01:24.477Z,89.90
2018-05-03T22:03:53.003Z,90.40
2018-05-03T22:06:20.645Z,90.40
2018-05-03T22:08:48.345Z,90.50
2018-05-03T22:11:16.041Z,90.40
2018-05-03T22:13:44.483Z,90.60
2018-05-03T22:16:12.345Z,90.60
2018-05-03T22:18:40.018Z,90.70
2018-05-03T22:21:07.762Z,90.80
2018-05-03T22:23:35.626Z,91.20
2018-05-03T22:26:03.332Z,90.90
2018-05-03T22:28:31.869Z,90.00
2018-05-03T22:30:59.734Z,89.90
2018-05-03T22:33:27.604Z,88.30
2018-05-03T22:35:56.694Z,86.00
2018-05-03T22:38:24.560Z,85.90
2018-05-03T22:40:52.284Z,85.90
2018-05-03T22:43:20.087Z,85.90
2018-05-03T22:45:47.785Z,86.70
2018-05-03T22:48:16.227Z,87.50
2018-05-03T22:50:44.093Z,87.40
2018-05-03T22:53:11.959Z,87.90
2018-05-03T22:55:39.655Z,88.10
2018-05-03T22:58:08.098Z,88.40
2018-05-03T23:00:35.805Z,88.40
2018-05-03T23:03:04.274Z,89.20
2018-05-03T23:05:32.823Z,89.60
2018-05-03T23:08:00.688Z,89.50
2018-05-03T23:10:28.357Z,90.00
2018-05-03T23:12:56.023Z,90.00
2018-05-03T23:15:23.721Z,90.20
2018-05-03T23:17:52.253Z,87.40
2018-05-03T23:20:20.120Z,87.30
2018-05-03T23:22:47.821Z,87.20
2018-05-03T23:25:16.289Z,86.80
2018-05-03T23:27:43.962Z,86.70
2018-05-03T23:30:12.605Z,87.40
2018-05-03T23:32:40.301Z,87.20
2018-05-03T23:35:08.740Z,87.00
2018-05-03T23:37:36.441Z,87.10
2018-05-03T23:40:04.890Z,88.50
2018-05-03T23:42:32.689Z,88.40
2018-05-03T23:45:01.159Z,87.90
2018-05-03T23:47:28.833Z,87.90
2018-05-03T23:49:57.294Z,86.90
2018-05-03T23:52:25.150Z,86.90
2018-05-03T23:54:53.718Z,85.50
2018-05-03T23:57:21.482Z,85.50
2018-05-03T23:59:49.206Z,85.00
